createdAt,value
2023-05-21T00:07:12.836Z,6.45
2023-05-21T00:09:42.686Z,5.35
2023-05-21T00:12:12.744Z,8.52
2023-05-21T00:14:42.641Z,4.43
2023-05-21T00:17:12.513Z,6.13
2023-05-21T00:19:42.861Z,9.18
2023-05-21T00:22:16.197Z,7.40
2023-05-21T00:24:46.246Z,5.28
2023-05-21T00:27:16.269Z,6.35
2023-05-21T00:29:46.666Z,5.43
2023-05-21T00:32:16.540Z,8.50
2023-05-21T00:34:46.412Z,6.30
2023-05-21T00:37:19.046Z,10.32
2023-05-21T00:39:49.053Z,7.43
2023-05-21T00:42:19.370Z,10.45
2023-05-21T00:44:49.269Z,8.93
2023-05-21T00:47:21.780Z,6.72
2023-05-21T00:49:52.106Z,3.97
2023-05-21T00:52:27.233Z,8.18
2023-05-21T00:54:57.273Z,5.65
2023-05-21T00:57:28.756Z,4.38
2023-05-21T00:59:58.705Z,7.40
2023-05-21T01:02:28.762Z,6.88
2023-05-21T01:05:00.564Z,6.10
2023-05-21T01:07:35.131Z,8.40
2023-05-21T01:10:06.746Z,8.52
2023-05-21T01:12:37.729Z,6.95
2023-05-21T01:15:11.974Z,5.68
2023-05-21T01:17:42.421Z,7.63
2023-05-21T01:20:13.805Z,5.18
2023-05-21T01:22:52.734Z,6.78
2023-05-21T01:25:23.081Z,5.47
2023-05-21T01:27:53.455Z,6.03
2023-05-21T01:30:24.725Z,5.20
2023-05-21T01:33:00.110Z,5.47
2023-05-21T01:35:32.897Z,4.82
2023-05-21T01:38:08.525Z,7.07
2023-05-21T01:40:42.286Z,7.28
2023-05-21T01:43:12.576Z,4.50
2023-05-21T01:45:43.870Z,8.07
2023-05-21T01:48:15.274Z,4.82
2023-05-21T01:50:47.113Z,7.05
2023-05-21T01:53:19.794Z,5.63
2023-05-21T01:55:49.841Z,4.05
2023-05-21T01:58:21.396Z,6.53
2023-05-21T02:00:52.194Z,7.10
2023-05-21T02:05:53.348Z,4.70
2023-05-21T02:08:27.481Z,8.52
2023-05-21T02:10:58.119Z,4.22
2023-05-21T02:13:29.357Z,5.32
2023-05-21T02:15:59.313Z,6.93
2023-05-21T02:18:29.504Z,6.38
2023-05-21T02:20:59.882Z,5.38
2023-05-21T02:23:32.315Z,6.93
2023-05-21T02:26:02.415Z,8.93
2023-05-21T02:28:32.908Z,6.22
2023-05-21T02:31:02.707Z,6.53
2023-05-21T02:33:32.480Z,4.95
2023-05-21T02:36:02.284Z,8.23
2023-05-21T02:38:34.631Z,7.93
2023-05-21T02:41:04.456Z,6.28
2023-05-21T02:43:34.712Z,4.43
2023-05-21T02:46:04.510Z,5.45
2023-05-21T02:48:34.351Z,8.98
2023-05-21T02:51:04.308Z,5.40
2023-05-21T02:53:36.902Z,5.80
2023-05-21T02:56:07.351Z,4.75
2023-05-21T02:58:37.178Z,8.18
2023-05-21T03:01:07.224Z,7.07
2023-05-21T03:03:37.189Z,5.82
2023-05-21T03:06:10.316Z,5.82
2023-05-21T03:08:42.844Z,5.45
2023-05-21T03:11:12.811Z,9.25
2023-05-21T03:13:42.901Z,6.32
2023-05-21T03:16:12.895Z,6.57
2023-05-21T03:18:43.503Z,8.23
2023-05-21T03:21:15.602Z,5.63
2023-05-21T03:23:48.097Z,9.13
2023-05-21T03:26:18.167Z,5.53
2023-05-21T03:28:48.134Z,7.28
2023-05-21T03:31:18.427Z,5.20
2023-05-21T03:33:53.964Z,7.10
2023-05-21T03:36:27.478Z,5.43
2023-05-21T03:39:01.904Z,5.75
2023-05-21T03:41:33.949Z,7.15
2023-05-21T03:44:10.985Z,7.20
2023-05-21T03:46:50.766Z,6.57
2023-05-21T03:49:26.540Z,7.57
2023-05-21T03:51:58.971Z,8.05
2023-05-21T03:54:32.093Z,5.57
2023-05-21T03:57:06.424Z,5.30
2023-05-21T03:59:36.708Z,4.80
2023-05-21T04:04:38.116Z,5.25
2023-05-21T04:07:15.543Z,4.10
2023-05-21T04:12:19.298Z,7.15
2023-05-21T04:14:49.349Z,5.47
2023-05-21T04:17:19.429Z,6.70
2023-05-21T04:19:49.681Z,6.65
2023-05-21T04:22:23.631Z,4.93
2023-05-21T04:25:06.750Z,9.30
2023-05-21T04:27:42.922Z,6.55
2023-05-21T04:30:13.958Z,8.10
2023-05-21T04:32:48.453Z,8.45
2023-05-21T04:35:18.574Z,3.92
2023-05-21T04:38:12.814Z,7.60
2023-05-21T04:40:45.393Z,6.03
2023-05-21T04:43:17.427Z,6.57
2023-05-21T04:45:48.054Z,6.60
2023-05-21T04:48:18.055Z,4.80
2023-05-21T04:50:48.030Z,6.10
2023-05-21T04:53:22.145Z,6.22
2023-05-21T04:55:54.771Z,7.40
2023-05-21T04:58:24.742Z,6.75
2023-05-21T05:00:54.728Z,7.55
2023-05-21T05:03:27.420Z,7.40
2023-05-21T05:05:57.434Z,8.63
2023-05-21T05:08:27.320Z,6.00
2023-05-21T05:11:02.469Z,10.35
2023-05-21T05:13:35.576Z,6.07
2023-05-21T05:16:06.327Z,5.95
2023-05-21T05:21:06.818Z,5.47
2023-05-21T05:23:37.305Z,6.10
2023-05-21T05:26:09.900Z,6.65
2023-05-21T05:28:46.157Z,6.05
2023-05-21T05:31:22.209Z,5.22
2023-05-21T05:33:52.349Z,8.15
2023-05-21T05:36:22.733Z,5.15
2023-05-21T05:38:52.860Z,6.90
2023-05-21T05:41:35.824Z,8.77
2023-05-21T05:44:10.807Z,8.82
2023-05-21T05:46:42.640Z,8.38
2023-05-21T05:49:13.829Z,6.32
2023-05-21T05:54:13.584Z,9.05
2023-05-21T05:56:48.980Z,6.32
2023-05-21T05:59:35.841Z,10.05
2023-05-21T06:02:06.271Z,8.88
2023-05-21T06:04:47.854Z,7.45
2023-05-21T06:07:25.723Z,6.72
2023-05-21T06:10:07.425Z,6.78
2023-05-21T06:12:51.770Z,7.40
2023-05-21T06:15:21.798Z,9.88
2023-05-21T06:17:51.696Z,8.45
2023-05-21T06:20:21.609Z,9.85
2023-05-21T06:22:51.438Z,11.25
2023-05-21T06:25:21.233Z,8.55
2023-05-21T06:27:53.584Z,8.35
2023-05-21T06:32:57.736Z,7.32
2023-05-21T06:35:28.566Z,7.35
2023-05-21T06:37:58.332Z,8.10
2023-05-21T06:40:28.269Z,9.90
2023-05-21T06:43:05.002Z,8.10
2023-05-21T06:45:35.022Z,7.28
2023-05-21T06:48:21.392Z,6.78
2023-05-21T06:50:51.579Z,7.30
2023-05-21T06:53:21.833Z,10.20
2023-05-21T06:55:53.986Z,7.28
2023-05-21T06:58:33.815Z,11.65
2023-05-21T07:01:04.057Z,7.72
2023-05-21T07:03:34.391Z,6.88
2023-05-21T07:06:04.732Z,7.68
2023-05-21T07:08:34.584Z,9.45
2023-05-21T07:11:05.058Z,10.50
2023-05-21T07:13:38.083Z,8.10
2023-05-21T07:16:08.459Z,8.70
2023-05-21T07:18:39.534Z,8.60
2023-05-21T07:21:09.568Z,9.02
2023-05-21T07:23:40.659Z,7.13
2023-05-21T07:26:12.661Z,9.68
2023-05-21T07:28:45.348Z,7.55
2023-05-21T07:31:16.055Z,9.15
2023-05-21T07:33:50.101Z,7.35
2023-05-21T07:36:21.993Z,11.70
2023-05-21T07:38:51.848Z,11.55
2023-05-21T07:41:22.222Z,9.52
2023-05-21T07:43:55.994Z,10.30
2023-05-21T07:46:26.022Z,10.20
2023-05-21T07:48:58.669Z,11.38
2023-05-21T07:51:29.033Z,9.15
2023-05-21T07:54:00.287Z,15.20
2023-05-21T07:56:35.722Z,11.02
2023-05-21T07:59:08.865Z,9.73
2023-05-21T08:01:41.375Z,11.63
2023-05-21T08:04:11.958Z,11.40
2023-05-21T08:06:42.299Z,12.15
2023-05-21T08:09:23.057Z,12.23
2023-05-21T08:12:04.818Z,17.08
2023-05-21T08:17:43.117Z,11.70
2023-05-21T08:20:15.443Z,12.00
2023-05-21T08:22:48.600Z,14.02
2023-05-21T08:25:19.932Z,13.38
2023-05-21T08:27:51.665Z,12.88
2023-05-21T08:30:25.364Z,13.10
2023-05-21T08:32:55.517Z,12.18
2023-05-21T08:35:26.087Z,21.45
2023-05-21T08:38:14.289Z,15.35
2023-05-21T08:41:07.916Z,13.93
2023-05-21T08:43:39.747Z,12.52
2023-05-21T08:46:12.823Z,13.60
2023-05-21T08:48:43.859Z,12.98
2023-05-21T08:51:13.839Z,16.65
2023-05-21T08:53:52.253Z,13.02
2023-05-21T08:56:24.958Z,13.90
2023-05-21T08:58:57.834Z,12.57
2023-05-21T09:01:35.112Z,13.05
2023-05-21T09:04:21.904Z,15.13
2023-05-21T09:06:58.360Z,12.98
2023-05-21T09:09:52.553Z,13.35
2023-05-21T09:12:22.716Z,17.10
2023-05-21T09:14:52.721Z,15.63
2023-05-21T09:17:30.698Z,14.65
2023-05-21T09:20:14.984Z,13.57
2023-05-21T09:22:58.360Z,14.18
2023-05-21T09:25:29.935Z,14.68
2023-05-21T09:28:04.233Z,16.30
2023-05-21T09:30:36.158Z,15.75
2023-05-21T09:33:09.186Z,14.88
2023-05-21T09:35:39.318Z,14.63
2023-05-21T09:38:11.914Z,14.18
2023-05-21T09:40:46.890Z,14.27
2023-05-21T09:43:18.987Z,13.98
2023-05-21T09:46:01.323Z,14.23
2023-05-21T09:48:42.373Z,13.00
2023-05-21T09:51:17.513Z,13.10
2023-05-21T09:53:51.762Z,13.57
2023-05-21T09:56:26.324Z,15.52
2023-05-21T09:58:57.539Z,17.30
2023-05-21T10:01:28.319Z,16.45
2023-05-21T10:04:02.447Z,14.98
2023-05-21T10:06:34.607Z,15.80
2023-05-21T10:09:12.447Z,15.73
2023-05-21T10:11:43.339Z,15.68
2023-05-21T10:14:17.989Z,17.40
2023-05-21T10:16:48.443Z,15.43
2023-05-21T10:19:22.690Z,16.00
2023-05-21T10:21:53.297Z,16.23
2023-05-21T10:24:23.696Z,16.05
2023-05-21T10:26:54.459Z,14.85
2023-05-21T10:29:25.963Z,14.10
2023-05-21T10:31:56.235Z,17.40
2023-05-21T10:34:28.916Z,14.50
2023-05-21T10:36:59.299Z,13.82
2023-05-21T10:42:19.801Z,13.70
2023-05-21T10:45:00.464Z,12.15
2023-05-21T10:47:43.700Z,14.02
2023-05-21T10:50:31.941Z,14.48
2023-05-21T10:53:10.672Z,15.70
2023-05-21T10:55:50.523Z,19.17
2023-05-21T10:58:44.947Z,13.52
2023-05-21T11:01:15.533Z,15.40
2023-05-21T11:03:45.725Z,13.75
2023-05-21T11:08:53.152Z,38.78
2023-05-21T11:11:45.268Z,14.77
2023-05-21T11:14:35.985Z,13.13
2023-05-21T11:17:07.109Z,13.40
2023-05-21T11:19:42.038Z,16.98
2023-05-21T11:22:24.799Z,14.73
2023-05-21T11:24:55.451Z,14.18
2023-05-21T11:27:38.955Z,15.57
2023-05-21T11:30:10.533Z,14.63
2023-05-21T11:32:41.728Z,16.60
2023-05-21T11:35:11.885Z,13.65
2023-05-21T11:37:46.752Z,15.85
2023-05-21T11:40:26.285Z,15.15
2023-05-21T11:42:57.654Z,17.08
2023-05-21T11:45:32.012Z,14.07
2023-05-21T11:48:02.095Z,15.65
2023-05-21T11:50:34.324Z,12.60
2023-05-21T11:53:07.860Z,14.25
2023-05-21T11:55:43.888Z,15.35
2023-05-21T11:58:19.441Z,13.10
2023-05-21T12:00:49.446Z,12.88
2023-05-21T12:03:20.759Z,13.90
2023-05-21T12:05:52.623Z,13.10
2023-05-21T12:08:28.291Z,13.07
2023-05-21T12:11:02.089Z,11.57
2023-05-21T12:13:32.363Z,16.05
2023-05-21T12:16:03.398Z,13.05
2023-05-21T12:18:34.597Z,14.80
2023-05-21T12:21:04.600Z,16.48
2023-05-21T12:23:37.194Z,14.35
2023-05-21T12:26:08.328Z,16.83
2023-05-21T12:28:38.199Z,16.52
2023-05-21T12:31:08.338Z,12.90
2023-05-21T12:33:38.214Z,11.25
2023-05-21T12:36:08.748Z,16.45
2023-05-21T12:38:41.994Z,14.18
2023-05-21T12:41:11.959Z,11.52
2023-05-21T12:43:41.977Z,17.95
2023-05-21T12:46:15.090Z,12.15
2023-05-21T12:48:45.508Z,14.55
2023-05-21T12:51:15.434Z,16.52
2023-05-21T12:53:48.083Z,14.90
2023-05-21T12:56:18.935Z,15.25
2023-05-21T12:58:53.188Z,13.75
2023-05-21T13:01:24.839Z,13.25
2023-05-21T13:03:54.832Z,13.40
2023-05-21T13:06:26.572Z,13.00
2023-05-21T13:08:58.982Z,14.05
2023-05-21T13:11:29.065Z,10.95
2023-05-21T13:13:59.634Z,12.80
2023-05-21T13:18:59.294Z,15.15
2023-05-21T13:21:29.446Z,10.35
2023-05-21T13:24:02.020Z,12.88
2023-05-21T13:26:32.066Z,12.30
2023-05-21T13:29:01.984Z,12.60
2023-05-21T13:31:32.201Z,10.75
2023-05-21T13:36:34.227Z,16.63
2023-05-21T13:39:07.119Z,12.27
2023-05-21T13:41:37.053Z,14.32
2023-05-21T13:44:07.128Z,12.45
2023-05-21T13:46:39.610Z,10.48
2023-05-21T13:49:10.088Z,13.27
2023-05-21T13:51:40.093Z,13.00
2023-05-21T13:54:14.300Z,11.88
2023-05-21T13:56:44.341Z,14.02
2023-05-21T13:59:14.514Z,13.77
2023-05-21T14:01:44.817Z,12.75
2023-05-21T14:04:14.883Z,13.80
2023-05-21T14:06:44.884Z,10.55
2023-05-21T14:09:17.544Z,10.75
2023-05-21T14:11:47.468Z,12.43
2023-05-21T14:14:19.235Z,12.25
2023-05-21T14:16:49.814Z,9.90
2023-05-21T14:19:20.002Z,11.55
2023-05-21T14:21:50.012Z,15.07
2023-05-21T14:24:22.603Z,13.43
2023-05-21T14:26:52.436Z,10.88
2023-05-21T14:29:22.433Z,11.68
2023-05-21T14:31:52.525Z,12.95
2023-05-21T14:36:52.286Z,12.95
2023-05-21T14:39:24.750Z,10.63
2023-05-21T14:41:54.779Z,9.90
2023-05-21T14:44:24.872Z,12.15
2023-05-21T14:46:54.772Z,13.60
2023-05-21T14:49:24.612Z,12.95
2023-05-21T14:51:54.330Z,13.88
2023-05-21T14:54:26.878Z,11.88
2023-05-21T14:56:56.929Z,11.95
2023-05-21T14:59:26.783Z,12.40
2023-05-21T15:01:56.869Z,12.30
2023-05-21T15:04:26.964Z,14.60
2023-05-21T15:06:56.848Z,12.30
2023-05-21T15:09:29.307Z,10.15
2023-05-21T15:11:59.221Z,13.00
2023-05-21T15:14:29.147Z,12.65
2023-05-21T15:16:59.037Z,12.13
2023-05-21T15:19:29.021Z,9.70
2023-05-21T15:21:59.070Z,16.10
2023-05-21T15:24:31.440Z,13.60
2023-05-21T15:27:01.298Z,9.80
2023-05-21T15:29:31.202Z,10.75
2023-05-21T15:32:05.199Z,9.55
2023-05-21T15:34:35.076Z,14.23
2023-05-21T15:37:05.374Z,9.65
2023-05-21T15:39:37.839Z,10.52
2023-05-21T15:42:08.079Z,11.45
2023-05-21T15:47:08.365Z,10.77
2023-05-21T15:49:38.500Z,9.90
2023-05-21T15:52:09.446Z,8.90
2023-05-21T15:54:41.989Z,12.68
2023-05-21T15:57:11.791Z,9.70
2023-05-21T15:59:41.613Z,8.60
2023-05-21T16:02:11.799Z,12.48
2023-05-21T16:04:41.683Z,11.20
2023-05-21T16:07:11.571Z,9.43
2023-05-21T16:09:44.704Z,10.57
2023-05-21T16:12:14.663Z,12.63
2023-05-21T16:14:44.812Z,10.43
2023-05-21T16:17:14.733Z,8.60
2023-05-21T16:19:44.584Z,8.52
2023-05-21T16:22:14.538Z,7.93
2023-05-21T16:24:46.943Z,8.40
2023-05-21T16:27:16.802Z,11.90
2023-05-21T16:29:47.222Z,9.15
2023-05-21T16:32:17.221Z,9.95
2023-05-21T16:34:47.271Z,10.20
2023-05-21T16:37:17.204Z,10.48
2023-05-21T16:39:49.579Z,16.67
2023-05-21T16:42:19.614Z,11.50
2023-05-21T16:44:49.532Z,9.93
2023-05-21T16:47:19.359Z,9.90
2023-05-21T16:49:49.253Z,9.80
2023-05-21T16:52:19.116Z,7.75
2023-05-21T16:54:51.577Z,9.80
2023-05-21T16:57:21.360Z,7.80
2023-05-21T16:59:51.223Z,8.52
2023-05-21T17:02:21.135Z,9.80
2023-05-21T17:04:51.097Z,10.90
2023-05-21T17:07:20.877Z,8.75
2023-05-21T17:09:53.268Z,8.90
2023-05-21T17:12:23.160Z,10.32
2023-05-21T17:14:52.964Z,11.40
2023-05-21T17:17:22.807Z,11.68
2023-05-21T17:19:52.632Z,7.60
2023-05-21T17:22:22.508Z,12.43
2023-05-21T17:24:54.992Z,9.32
2023-05-21T17:27:24.844Z,9.90
2023-05-21T17:29:54.645Z,8.43
2023-05-21T17:32:24.521Z,8.90
2023-05-21T17:34:54.317Z,9.05
2023-05-21T17:37:24.613Z,8.82
2023-05-21T17:42:27.607Z,9.05
2023-05-21T17:44:57.440Z,15.57
2023-05-21T17:47:27.285Z,8.68
2023-05-21T17:49:57.149Z,8.30
2023-05-21T17:52:27.150Z,8.40
2023-05-21T17:54:59.557Z,10.05
2023-05-21T17:57:29.305Z,13.35
2023-05-21T17:59:59.076Z,8.45
2023-05-21T18:02:28.924Z,11.93
2023-05-21T18:04:58.698Z,11.98
2023-05-21T18:07:28.493Z,14.27
2023-05-21T18:10:00.844Z,11.65
2023-05-21T18:12:30.705Z,11.77
2023-05-21T18:15:01.960Z,8.20
2023-05-21T18:17:31.776Z,11.40
2023-05-21T18:20:01.554Z,8.73
2023-05-21T18:22:31.330Z,11.02
2023-05-21T18:25:03.918Z,9.90
2023-05-21T18:27:33.699Z,10.25
2023-05-21T18:30:06.482Z,15.52
2023-05-21T18:32:38.945Z,11.68
2023-05-21T18:35:10.935Z,10.73
2023-05-21T18:37:43.106Z,9.82
2023-05-21T18:40:17.608Z,10.30
2023-05-21T18:42:47.453Z,10.43
2023-05-21T18:45:17.870Z,9.30
2023-05-21T18:47:47.704Z,15.60
2023-05-21T18:50:19.235Z,15.10
2023-05-21T18:52:49.422Z,13.85
2023-05-21T18:55:22.867Z,10.65
2023-05-21T18:57:52.716Z,12.32
2023-05-21T19:00:22.952Z,11.13
2023-05-21T19:02:52.839Z,14.27
2023-05-21T19:05:22.783Z,9.35
2023-05-21T19:07:52.651Z,11.38
2023-05-21T19:10:25.190Z,11.88
2023-05-21T19:12:55.005Z,11.95
2023-05-21T19:15:24.826Z,9.27
2023-05-21T19:17:54.801Z,12.27
2023-05-21T19:20:28.156Z,10.10
2023-05-21T19:22:58.156Z,10.10
2023-05-21T19:25:31.657Z,12.57
2023-05-21T19:28:01.543Z,9.77
2023-05-21T19:30:33.709Z,10.07
2023-05-21T19:33:03.625Z,9.48
2023-05-21T19:35:33.439Z,11.05
2023-05-21T19:38:05.316Z,13.80
2023-05-21T19:40:38.384Z,14.15
2023-05-21T19:43:08.339Z,10.48
2023-05-21T19:45:38.175Z,9.18
2023-05-21T19:48:09.036Z,10.10
2023-05-21T19:50:39.103Z,9.55
2023-05-21T19:53:09.013Z,9.27
2023-05-21T19:55:41.747Z,11.68
2023-05-21T19:58:13.587Z,12.95
2023-05-21T20:00:47.542Z,12.90
2023-05-21T20:03:17.352Z,12.13
2023-05-21T20:05:47.124Z,12.30
2023-05-21T20:08:17.468Z,10.88
2023-05-21T20:13:21.833Z,11.13
2023-05-21T20:15:51.666Z,12.98
2023-05-21T20:18:22.570Z,9.68
2023-05-21T20:20:52.403Z,14.27
2023-05-21T20:23:22.178Z,9.57
2023-05-21T20:25:54.713Z,10.30
2023-05-21T20:28:24.842Z,19.02
2023-05-21T20:30:57.783Z,9.55
2023-05-21T20:33:28.096Z,12.23
2023-05-21T20:35:57.860Z,10.18
2023-05-21T20:38:28.173Z,12.63
2023-05-21T20:41:00.633Z,12.60
2023-05-21T20:43:30.908Z,8.05
2023-05-21T20:46:02.490Z,9.13
2023-05-21T20:48:32.769Z,11.18
2023-05-21T20:51:03.453Z,9.35
2023-05-21T20:53:33.891Z,9.30
2023-05-21T20:58:40.106Z,10.07
2023-05-21T21:01:10.916Z,10.18
2023-05-21T21:03:41.582Z,9.10
2023-05-21T21:06:11.450Z,10.30
2023-05-21T21:08:41.326Z,9.70
2023-05-21T21:11:13.849Z,8.30
2023-05-21T21:13:43.980Z,12.32
2023-05-21T21:16:14.353Z,9.23
2023-05-21T22:54:45.409Z,7.60
2023-05-21T22:57:15.469Z,6.95
2023-05-21T22:59:45.617Z,10.18
2023-05-21T23:02:17.087Z,8.43
2023-05-21T23:04:48.559Z,6.18
2023-05-21T23:07:19.129Z,8.52
2023-05-21T23:09:51.980Z,7.53
2023-05-21T23:12:22.047Z,8.70
2023-05-21T23:14:52.017Z,9.48
2023-05-21T23:17:22.248Z,8.27
2023-05-21T23:19:52.812Z,8.35
2023-05-21T23:22:22.949Z,8.48
2023-05-21T23:24:55.718Z,9.57
2023-05-21T23:27:25.808Z,11.05
2023-05-21T23:29:55.977Z,10.38
2023-05-21T23:32:26.298Z,14.07
2023-05-21T23:34:57.163Z,12.57
2023-05-21T23:37:27.204Z,7.28
2023-05-21T23:39:59.793Z,8.50
2023-05-21T23:42:29.867Z,8.95
2023-05-21T23:44:59.822Z,7.80
2023-05-21T23:47:29.897Z,10.50
2023-05-21T23:49:59.909Z,8.75
2023-05-21T23:52:29.761Z,6.63
2023-05-21T23:55:02.270Z,11.82
2023-05-21T23:57:32.313Z,7.95
